sensor_id;sensor_type;location;lat;lon;timestamp;P1;durP1;ratioP1;P2;durP2;ratioP2
16407;SDS011;8313;49.894;8.084;2023-03-14T00:01:12;1.23;;;1.10;;
16407;SDS011;8313;49.894;8.084;2023-03-14T00:03:39;1.80;;;0.97;;
16407;SDS011;8313;49.894;8.084;2023-03-14T00:06:05;4.30;;;1.47;;
16407;SDS011;8313;49.894;8.084;2023-03-14T00:08:32;2.53;;;1.40;;
16407;SDS011;8313;49.894;8.084;2023-03-14T00:10:58;3.27;;;1.13;;
16407;SDS011;8313;49.894;8.084;2023-03-14T00:13:28;3.33;;;2.00;;
16407;SDS011;8313;49.894;8.084;2023-03-14T00:15:54;1.60;;;1.00;;
16407;SDS011;8313;49.894;8.084;2023-03-14T00:18:19;5.10;;;1.03;;
16407;SDS011;8313;49.894;8.084;2023-03-14T00:20:45;6.70;;;1.30;;
16407;SDS011;8313;49.894;8.084;2023-03-14T00:23:11;1.33;;;1.23;;
16407;SDS011;8313;49.894;8.084;2023-03-14T00:25:36;1.30;;;0.97;;
16407;SDS011;8313;49.894;8.084;2023-03-14T00:28:02;6.20;;;0.97;;
16407;SDS011;8313;49.894;8.084;2023-03-14T00:30:28;1.67;;;0.90;;
16407;SDS011;8313;49.894;8.084;2023-03-14T00:32:54;1.50;;;0.80;;
16407;SDS011;8313;49.894;8.084;2023-03-14T00:35:19;4.37;;;1.27;;
16407;SDS011;8313;49.894;8.084;2023-03-14T00:37:45;1.70;;;1.20;;
16407;SDS011;8313;49.894;8.084;2023-03-14T00:40:11;4.90;;;1.13;;
16407;SDS011;8313;49.894;8.084;2023-03-14T00:42:36;3.17;;;1.20;;
16407;SDS011;8313;49.894;8.084;2023-03-14T00:45:02;1.30;;;0.90;;
16407;SDS011;8313;49.894;8.084;2023-03-14T00:47:29;3.40;;;1.03;;
16407;SDS011;8313;49.894;8.084;2023-03-14T00:49:54;1.30;;;1.07;;
16407;SDS011;8313;49.894;8.084;2023-03-14T00:52:20;2.30;;;1.03;;
16407;SDS011;8313;49.894;8.084;2023-03-14T00:54:45;4.07;;;1.00;;
16407;SDS011;8313;49.894;8.084;2023-03-14T00:57:11;3.67;;;0.90;;
16407;SDS011;8313;49.894;8.084;2023-03-14T00:59:37;0.87;;;0.80;;
16407;SDS011;8313;49.894;8.084;2023-03-14T01:02:02;2.30;;;1.00;;
16407;SDS011;8313;49.894;8.084;2023-03-14T01:04:28;1.30;;;1.10;;
16407;SDS011;8313;49.894;8.084;2023-03-14T01:06:55;2.60;;;1.40;;
16407;SDS011;8313;49.894;8.084;2023-03-14T01:09:21;2.53;;;1.10;;
16407;SDS011;8313;49.894;8.084;2023-03-14T01:11:47;4.33;;;1.00;;
16407;SDS011;8313;49.894;8.084;2023-03-14T01:14:13;2.50;;;1.30;;
16407;SDS011;8313;49.894;8.084;2023-03-14T01:16:39;3.00;;;1.10;;
16407;SDS011;8313;49.894;8.084;2023-03-14T01:19:05;2.30;;;1.10;;
16407;SDS011;8313;49.894;8.084;2023-03-14T01:21:31;2.00;;;1.17;;
16407;SDS011;8313;49.894;8.084;2023-03-14T01:23:59;4.90;;;1.57;;
16407;SDS011;8313;49.894;8.084;2023-03-14T01:26:26;1.27;;;1.10;;
16407;SDS011;8313;49.894;8.084;2023-03-14T01:28:54;1.83;;;1.03;;
16407;SDS011;8313;49.894;8.084;2023-03-14T01:31:21;2.30;;;1.17;;
16407;SDS011;8313;49.894;8.084;2023-03-14T01:33:48;3.37;;;1.30;;
16407;SDS011;8313;49.894;8.084;2023-03-14T01:36:13;1.87;;;1.30;;
16407;SDS011;8313;49.894;8.084;2023-03-14T01:38:40;3.60;;;1.40;;
16407;SDS011;8313;49.894;8.084;2023-03-14T01:41:14;3.17;;;1.10;;
16407;SDS011;8313;49.894;8.084;2023-03-14T01:43:42;4.10;;;1.00;;
16407;SDS011;8313;49.894;8.084;2023-03-14T01:49:13;1.83;;;1.03;;
16407;SDS011;8313;49.894;8.084;2023-03-14T01:51:52;4.43;;;0.87;;
16407;SDS011;8313;49.894;8.084;2023-03-14T01:57:02;0.90;;;0.80;;
16407;SDS011;8313;49.894;8.084;2023-03-14T01:59:29;2.20;;;1.30;;
16407;SDS011;8313;49.894;8.084;2023-03-14T02:01:56;2.27;;;1.23;;
16407;SDS011;8313;49.894;8.084;2023-03-14T02:04:22;2.20;;;0.90;;
16407;SDS011;8313;49.894;8.084;2023-03-14T02:06:53;1.43;;;0.93;;
16407;SDS011;8313;49.894;8.084;2023-03-14T02:09:35;3.00;;;1.20;;
16407;SDS011;8313;49.894;8.084;2023-03-14T02:12:03;3.87;;;1.00;;
16407;SDS011;8313;49.894;8.084;2023-03-14T02:14:48;1.50;;;1.10;;
16407;SDS011;8313;49.894;8.084;2023-03-14T02:17:28;1.57;;;1.07;;
16407;SDS011;8313;49.894;8.084;2023-03-14T02:20:34;2.93;;;1.27;;
16407;SDS011;8313;49.894;8.084;2023-03-14T02:23:18;1.10;;;1.00;;
16407;SDS011;8313;49.894;8.084;2023-03-14T02:25:54;1.33;;;1.23;;
16407;SDS011;8313;49.894;8.084;2023-03-14T02:28:26;1.20;;;1.10;;
16407;SDS011;8313;49.894;8.084;2023-03-14T02:30:55;4.60;;;1.27;;
16407;SDS011;8313;49.894;8.084;2023-03-14T02:33:21;2.23;;;2.03;;
16407;SDS011;8313;49.894;8.084;2023-03-14T02:35:58;1.30;;;1.20;;
16407;SDS011;8313;49.894;8.084;2023-03-14T02:41:13;3.37;;;1.33;;
16407;SDS011;8313;49.894;8.084;2023-03-14T02:43:44;6.37;;;1.77;;
16407;SDS011;8313;49.894;8.084;2023-03-14T02:46:12;2.10;;;1.10;;
16407;SDS011;8313;49.894;8.084;2023-03-14T02:48:41;2.53;;;1.17;;
16407;SDS011;8313;49.894;8.084;2023-03-14T02:51:12;2.73;;;1.53;;
16407;SDS011;8313;49.894;8.084;2023-03-14T02:53:40;1.80;;;0.90;;
16407;SDS011;8313;49.894;8.084;2023-03-14T02:56:10;1.90;;;1.20;;
16407;SDS011;8313;49.894;8.084;2023-03-14T02:58:36;2.63;;;1.20;;
16407;SDS011;8313;49.894;8.084;2023-03-14T03:01:18;3.53;;;1.60;;
16407;SDS011;8313;49.894;8.084;2023-03-14T03:03:44;2.23;;;1.20;;
16407;SDS011;8313;49.894;8.084;2023-03-14T03:06:10;0.80;;;0.80;;
16407;SDS011;8313;49.894;8.084;2023-03-14T03:08:36;1.43;;;1.10;;
16407;SDS011;8313;49.894;8.084;2023-03-14T03:11:03;2.37;;;1.20;;
16407;SDS011;8313;49.894;8.084;2023-03-14T03:13:31;2.17;;;1.17;;
16407;SDS011;8313;49.894;8.084;2023-03-14T03:15:59;1.47;;;1.37;;
16407;SDS011;8313;49.894;8.084;2023-03-14T03:18:25;1.67;;;1.10;;
16407;SDS011;8313;49.894;8.084;2023-03-14T03:20:51;1.30;;;0.87;;
16407;SDS011;8313;49.894;8.084;2023-03-14T03:23:16;3.63;;;1.33;;
16407;SDS011;8313;49.894;8.084;2023-03-14T03:25:42;4.63;;;1.50;;
16407;SDS011;8313;49.894;8.084;2023-03-14T03:28:16;2.30;;;1.20;;
16407;SDS011;8313;49.894;8.084;2023-03-14T03:30:42;3.43;;;1.37;;
16407;SDS011;8313;49.894;8.084;2023-03-14T03:33:09;1.77;;;0.97;;
16407;SDS011;8313;49.894;8.084;2023-03-14T03:35:41;1.43;;;1.20;;
16407;SDS011;8313;49.894;8.084;2023-03-14T03:38:09;2.93;;;1.20;;
16407;SDS011;8313;49.894;8.084;2023-03-14T03:40:36;3.40;;;1.20;;
16407;SDS011;8313;49.894;8.084;2023-03-14T03:43:02;3.93;;;0.90;;
16407;SDS011;8313;49.894;8.084;2023-03-14T03:45:34;1.80;;;1.20;;
16407;SDS011;8313;49.894;8.084;2023-03-14T03:48:00;0.57;;;0.57;;
16407;SDS011;8313;49.894;8.084;2023-03-14T03:50:26;2.83;;;1.07;;
16407;SDS011;8313;49.894;8.084;2023-03-14T03:52:51;3.17;;;1.00;;
16407;SDS011;8313;49.894;8.084;2023-03-14T03:55:17;6.10;;;0.90;;
16407;SDS011;8313;49.894;8.084;2023-03-14T03:57:44;1.70;;;1.30;;
16407;SDS011;8313;49.894;8.084;2023-03-14T04:00:10;1.53;;;1.00;;
16407;SDS011;8313;49.894;8.084;2023-03-14T04:02:40;4.43;;;1.30;;
16407;SDS011;8313;49.894;8.084;2023-03-14T04:05:08;1.50;;;1.00;;
16407;SDS011;8313;49.894;8.084;2023-03-14T04:07:35;3.63;;;1.30;;
16407;SDS011;8313;49.894;8.084;2023-03-14T04:10:01;4.23;;;0.80;;
16407;SDS011;8313;49.894;8.084;2023-03-14T04:12:37;1.37;;;1.00;;
16407;SDS011;8313;49.894;8.084;2023-03-14T04:15:06;3.60;;;1.03;;
16407;SDS011;8313;49.894;8.084;2023-03-14T04:17:33;1.03;;;0.90;;
16407;SDS011;8313;49.894;8.084;2023-03-14T04:19:59;4.10;;;1.40;;
16407;SDS011;8313;49.894;8.084;2023-03-14T04:22:33;3.70;;;1.27;;
16407;SDS011;8313;49.894;8.084;2023-03-14T04:24:59;1.47;;;0.90;;
16407;SDS011;8313;49.894;8.084;2023-03-14T04:27:27;1.70;;;1.30;;
16407;SDS011;8313;49.894;8.084;2023-03-14T04:29:54;1.00;;;0.70;;
16407;SDS011;8313;49.894;8.084;2023-03-14T04:32:33;1.20;;;1.00;;
16407;SDS011;8313;49.894;8.084;2023-03-14T04:34:59;1.57;;;1.20;;
16407;SDS011;8313;49.894;8.084;2023-03-14T04:37:24;2.87;;;1.00;;
16407;SDS011;8313;49.894;8.084;2023-03-14T04:39:50;2.00;;;0.70;;
16407;SDS011;8313;49.894;8.084;2023-03-14T04:42:24;0.73;;;0.73;;
16407;SDS011;8313;49.894;8.084;2023-03-14T04:44:49;0.97;;;0.80;;
16407;SDS011;8313;49.894;8.084;2023-03-14T04:47:16;2.70;;;0.70;;
16407;SDS011;8313;49.894;8.084;2023-03-14T04:49:44;1.43;;;0.60;;
16407;SDS011;8313;49.894;8.084;2023-03-14T04:52:12;1.67;;;0.93;;
16407;SDS011;8313;49.894;8.084;2023-03-14T04:54:38;2.13;;;1.10;;
16407;SDS011;8313;49.894;8.084;2023-03-14T04:57:04;3.60;;;0.80;;
16407;SDS011;8313;49.894;8.084;2023-03-14T04:59:32;1.30;;;0.97;;
16407;SDS011;8313;49.894;8.084;2023-03-14T05:02:07;6.30;;;1.10;;
16407;SDS011;8313;49.894;8.084;2023-03-14T05:04:41;1.60;;;0.67;;
16407;SDS011;8313;49.894;8.084;2023-03-14T05:07:16;1.30;;;0.87;;
16407;SDS011;8313;49.894;8.084;2023-03-14T05:10:00;2.63;;;1.20;;
16407;SDS011;8313;49.894;8.084;2023-03-14T05:13:04;1.00;;;0.70;;
16407;SDS011;8313;49.894;8.084;2023-03-14T05:15:48;1.93;;;0.60;;
16407;SDS011;8313;49.894;8.084;2023-03-14T05:18:37;2.33;;;0.93;;
16407;SDS011;8313;49.894;8.084;2023-03-14T05:21:11;2.60;;;0.83;;
16407;SDS011;8313;49.894;8.084;2023-03-14T05:24:06;3.53;;;0.80;;
16407;SDS011;8313;49.894;8.084;2023-03-14T05:26:52;2.80;;;1.10;;
16407;SDS011;8313;49.894;8.084;2023-03-14T05:29:27;1.40;;;0.83;;
16407;SDS011;8313;49.894;8.084;2023-03-14T05:32:04;1.83;;;0.53;;
16407;SDS011;8313;49.894;8.084;2023-03-14T05:34:59;1.00;;;0.70;;
16407;SDS011;8313;49.894;8.084;2023-03-14T05:37:39;1.30;;;0.83;;
16407;SDS011;8313;49.894;8.084;2023-03-14T05:40:16;1.60;;;0.90;;
16407;SDS011;8313;49.894;8.084;2023-03-14T05:42:57;0.80;;;0.70;;
16407;SDS011;8313;49.894;8.084;2023-03-14T05:45:46;1.67;;;0.70;;
16407;SDS011;8313;49.894;8.084;2023-03-14T05:48:34;0.97;;;0.50;;
16407;SDS011;8313;49.894;8.084;2023-03-14T05:51:08;0.63;;;0.60;;
16407;SDS011;8313;49.894;8.084;2023-03-14T05:53:53;1.60;;;0.70;;
16407;SDS011;8313;49.894;8.084;2023-03-14T05:56:32;0.83;;;0.83;;
16407;SDS011;8313;49.894;8.084;2023-03-14T05:59:07;3.63;;;0.90;;
16407;SDS011;8313;49.894;8.084;2023-03-14T06:01:49;0.80;;;0.73;;
16407;SDS011;8313;49.894;8.084;2023-03-14T06:04:18;1.20;;;0.90;;
16407;SDS011;8313;49.894;8.084;2023-03-14T06:06:49;1.30;;;1.00;;
16407;SDS011;8313;49.894;8.084;2023-03-14T06:09:15;0.90;;;0.60;;
16407;SDS011;8313;49.894;8.084;2023-03-14T06:11:42;0.87;;;0.87;;
16407;SDS011;8313;49.894;8.084;2023-03-14T06:14:08;3.47;;;0.83;;
16407;SDS011;8313;49.894;8.084;2023-03-14T06:16:37;1.27;;;0.70;;
16407;SDS011;8313;49.894;8.084;2023-03-14T06:19:03;1.00;;;0.73;;
16407;SDS011;8313;49.894;8.084;2023-03-14T06:21:29;1.07;;;0.90;;
16407;SDS011;8313;49.894;8.084;2023-03-14T06:23:55;4.97;;;1.20;;
16407;SDS011;8313;49.894;8.084;2023-03-14T06:26:22;1.10;;;1.00;;
16407;SDS011;8313;49.894;8.084;2023-03-14T06:28:48;1.40;;;1.23;;
16407;SDS011;8313;49.894;8.084;2023-03-14T06:31:16;1.00;;;0.83;;
16407;SDS011;8313;49.894;8.084;2023-03-14T06:33:50;1.33;;;1.23;;
16407;SDS011;8313;49.894;8.084;2023-03-14T06:36:17;1.00;;;1.00;;
16407;SDS011;8313;49.894;8.084;2023-03-14T06:38:45;1.03;;;0.93;;
16407;SDS011;8313;49.894;8.084;2023-03-14T06:41:11;3.90;;;0.80;;
16407;SDS011;8313;49.894;8.084;2023-03-14T06:43:40;1.83;;;1.03;;
16407;SDS011;8313;49.894;8.084;2023-03-14T06:46:07;1.60;;;1.10;;
16407;SDS011;8313;49.894;8.084;2023-03-14T06:48:34;1.43;;;0.90;;
16407;SDS011;8313;49.894;8.084;2023-03-14T06:51:00;0.77;;;0.77;;
16407;SDS011;8313;49.894;8.084;2023-03-14T06:53:26;0.80;;;0.80;;
16407;SDS011;8313;49.894;8.084;2023-03-14T06:55:52;2.67;;;1.00;;
16407;SDS011;8313;49.894;8.084;2023-03-14T06:58:18;2.63;;;1.27;;
16407;SDS011;8313;49.894;8.084;2023-03-14T07:00:45;0.90;;;0.90;;
16407;SDS011;8313;49.894;8.084;2023-03-14T07:03:14;1.27;;;0.73;;
16407;SDS011;8313;49.894;8.084;2023-03-14T07:05:43;2.00;;;1.07;;
16407;SDS011;8313;49.894;8.084;2023-03-14T07:08:09;1.53;;;1.20;;
16407;SDS011;8313;49.894;8.084;2023-03-14T07:10:34;1.17;;;0.97;;
16407;SDS011;8313;49.894;8.084;2023-03-14T07:13:00;2.40;;;1.10;;
16407;SDS011;8313;49.894;8.084;2023-03-14T07:15:30;2.17;;;1.23;;
16407;SDS011;8313;49.894;8.084;2023-03-14T07:18:00;3.00;;;1.33;;
16407;SDS011;8313;49.894;8.084;2023-03-14T07:20:27;3.27;;;1.67;;
16407;SDS011;8313;49.894;8.084;2023-03-14T07:22:54;2.53;;;1.17;;
16407;SDS011;8313;49.894;8.084;2023-03-14T07:25:29;1.80;;;1.20;;
16407;SDS011;8313;49.894;8.084;2023-03-14T07:27:55;1.23;;;1.00;;
16407;SDS011;8313;49.894;8.084;2023-03-14T07:30:21;3.97;;;1.30;;
16407;SDS011;8313;49.894;8.084;2023-03-14T07:32:47;3.47;;;1.17;;
16407;SDS011;8313;49.894;8.084;2023-03-14T07:35:13;1.40;;;1.23;;
16407;SDS011;8313;49.894;8.084;2023-03-14T07:37:40;4.00;;;1.30;;
16407;SDS011;8313;49.894;8.084;2023-03-14T07:40:06;2.77;;;1.23;;
16407;SDS011;8313;49.894;8.084;2023-03-14T07:42:34;2.30;;;1.27;;
16407;SDS011;8313;49.894;8.084;2023-03-14T07:45:23;1.77;;;1.57;;
16407;SDS011;8313;49.894;8.084;2023-03-14T07:47:49;1.00;;;0.97;;
16407;SDS011;8313;49.894;8.084;2023-03-14T07:50:14;1.47;;;1.37;;
16407;SDS011;8313;49.894;8.084;2023-03-14T07:52:40;1.00;;;0.90;;
16407;SDS011;8313;49.894;8.084;2023-03-14T07:55:06;1.33;;;1.23;;
16407;SDS011;8313;49.894;8.084;2023-03-14T07:57:32;4.27;;;1.57;;
16407;SDS011;8313;49.894;8.084;2023-03-14T07:59:58;4.10;;;2.00;;
16407;SDS011;8313;49.894;8.084;2023-03-14T08:02:23;2.20;;;1.50;;
16407;SDS011;8313;49.894;8.084;2023-03-14T08:04:49;1.77;;;1.50;;
16407;SDS011;8313;49.894;8.084;2023-03-14T08:07:15;2.00;;;1.77;;
16407;SDS011;8313;49.894;8.084;2023-03-14T08:09:41;3.60;;;1.90;;
16407;SDS011;8313;49.894;8.084;2023-03-14T08:12:07;2.30;;;2.10;;
16407;SDS011;8313;49.894;8.084;2023-03-14T08:14:33;2.40;;;2.17;;
16407;SDS011;8313;49.894;8.084;2023-03-14T08:16:59;1.93;;;1.83;;
16407;SDS011;8313;49.894;8.084;2023-03-14T08:19:24;2.30;;;2.10;;
16407;SDS011;8313;49.894;8.084;2023-03-14T08:21:50;1.77;;;1.67;;
16407;SDS011;8313;49.894;8.084;2023-03-14T08:24:16;2.87;;;1.83;;
16407;SDS011;8313;49.894;8.084;2023-03-14T08:26:42;3.07;;;1.93;;
16407;SDS011;8313;49.894;8.084;2023-03-14T08:29:07;2.63;;;2.17;;
16407;SDS011;8313;49.894;8.084;2023-03-14T08:31:36;1.67;;;1.57;;
16407;SDS011;8313;49.894;8.084;2023-03-14T08:34:02;3.03;;;1.77;;
16407;SDS011;8313;49.894;8.084;2023-03-14T08:36:28;2.40;;;2.20;;
16407;SDS011;8313;49.894;8.084;2023-03-14T08:38:54;2.60;;;2.40;;
16407;SDS011;8313;49.894;8.084;2023-03-14T08:41:19;2.53;;;2.30;;
16407;SDS011;8313;49.894;8.084;2023-03-14T08:43:45;4.60;;;2.27;;
16407;SDS011;8313;49.894;8.084;2023-03-14T08:46:11;2.40;;;2.20;;
16407;SDS011;8313;49.894;8.084;2023-03-14T08:48:37;1.93;;;1.83;;
16407;SDS011;8313;49.894;8.084;2023-03-14T08:51:09;2.23;;;1.80;;
16407;SDS011;8313;49.894;8.084;2023-03-14T08:53:37;1.80;;;1.70;;
16407;SDS011;8313;49.894;8.084;2023-03-14T08:56:03;3.30;;;2.00;;
16407;SDS011;8313;49.894;8.084;2023-03-14T08:58:31;2.03;;;1.90;;
16407;SDS011;8313;49.894;8.084;2023-03-14T09:01:01;1.70;;;1.60;;
16407;SDS011;8313;49.894;8.084;2023-03-14T09:03:27;1.70;;;1.60;;
16407;SDS011;8313;49.894;8.084;2023-03-14T09:05:53;2.20;;;2.00;;
16407;SDS011;8313;49.894;8.084;2023-03-14T09:08:19;1.80;;;1.70;;
16407;SDS011;8313;49.894;8.084;2023-03-14T09:10:45;5.00;;;2.70;;
16407;SDS011;8313;49.894;8.084;2023-03-14T09:13:10;2.40;;;2.20;;
16407;SDS011;8313;49.894;8.084;2023-03-14T09:15:36;2.63;;;2.00;;
16407;SDS011;8313;49.894;8.084;2023-03-14T09:18:02;2.43;;;2.17;;
16407;SDS011;8313;49.894;8.084;2023-03-14T09:20:27;2.53;;;2.33;;
16407;SDS011;8313;49.894;8.084;2023-03-14T09:22:53;2.80;;;2.43;;
16407;SDS011;8313;49.894;8.084;2023-03-14T09:25:19;2.03;;;1.93;;
16407;SDS011;8313;49.894;8.084;2023-03-14T09:27:44;3.00;;;2.27;;
16407;SDS011;8313;49.894;8.084;2023-03-14T09:30:10;2.00;;;1.90;;
16407;SDS011;8313;49.894;8.084;2023-03-14T09:32:36;3.83;;;2.60;;
16407;SDS011;8313;49.894;8.084;2023-03-14T09:35:03;1.80;;;1.70;;
16407;SDS011;8313;49.894;8.084;2023-03-14T09:37:28;2.23;;;2.03;;
16407;SDS011;8313;49.894;8.084;2023-03-14T09:39:54;2.20;;;1.53;;
16407;SDS011;8313;49.894;8.084;2023-03-14T09:42:21;1.60;;;1.50;;
16407;SDS011;8313;49.894;8.084;2023-03-14T09:47:19;1.30;;;1.30;;
16407;SDS011;8313;49.894;8.084;2023-03-14T09:49:47;1.67;;;1.57;;
16407;SDS011;8313;49.894;8.084;2023-03-14T09:52:13;2.47;;;2.27;;
16407;SDS011;8313;49.894;8.084;2023-03-14T09:54:52;3.73;;;1.77;;
16407;SDS011;8313;49.894;8.084;2023-03-14T09:57:23;1.70;;;1.60;;
16407;SDS011;8313;49.894;8.084;2023-03-14T09:59:51;1.80;;;1.70;;
16407;SDS011;8313;49.894;8.084;2023-03-14T10:02:23;1.63;;;1.53;;
16407;SDS011;8313;49.894;8.084;2023-03-14T10:04:53;2.83;;;1.60;;
16407;SDS011;8313;49.894;8.084;2023-03-14T10:07:30;1.30;;;1.20;;
16407;SDS011;8313;49.894;8.084;2023-03-14T10:09:57;1.37;;;1.27;;
16407;SDS011;8313;49.894;8.084;2023-03-14T10:12:30;1.50;;;1.40;;
16407;SDS011;8313;49.894;8.084;2023-03-14T10:15:05;1.10;;;1.10;;
16407;SDS011;8313;49.894;8.084;2023-03-14T10:17:39;1.20;;;1.10;;
16407;SDS011;8313;49.894;8.084;2023-03-14T10:20:26;1.23;;;1.20;;
16407;SDS011;8313;49.894;8.084;2023-03-14T10:23:05;1.70;;;1.60;;
16407;SDS011;8313;49.894;8.084;2023-03-14T10:25:41;3.60;;;3.30;;
16407;SDS011;8313;49.894;8.084;2023-03-14T10:28:25;2.70;;;2.50;;
16407;SDS011;8313;49.894;8.084;2023-03-14T10:30:56;1.67;;;1.50;;
16407;SDS011;8313;49.894;8.084;2023-03-14T10:33:27;1.30;;;1.20;;
16407;SDS011;8313;49.894;8.084;2023-03-14T10:35:56;2.73;;;1.00;;
16407;SDS011;8313;49.894;8.084;2023-03-14T10:38:29;1.60;;;1.50;;
16407;SDS011;8313;49.894;8.084;2023-03-14T10:40:56;3.67;;;2.93;;
16407;SDS011;8313;49.894;8.084;2023-03-14T10:43:25;5.60;;;5.10;;
16407;SDS011;8313;49.894;8.084;2023-03-14T10:45:56;2.67;;;2.47;;
16407;SDS011;8313;49.894;8.084;2023-03-14T10:48:29;3.17;;;2.97;;
16407;SDS011;8313;49.894;8.084;2023-03-14T10:51:03;3.77;;;3.47;;
16407;SDS011;8313;49.894;8.084;2023-03-14T10:56:13;1.63;;;1.50;;
16407;SDS011;8313;49.894;8.084;2023-03-14T10:58:47;1.70;;;1.20;;
16407;SDS011;8313;49.894;8.084;2023-03-14T11:03:52;3.90;;;3.60;;
16407;SDS011;8313;49.894;8.084;2023-03-14T11:06:28;2.17;;;2.07;;
16407;SDS011;8313;49.894;8.084;2023-03-14T11:11:54;1.70;;;1.60;;
16407;SDS011;8313;49.894;8.084;2023-03-14T11:14:36;0.77;;;0.77;;
16407;SDS011;8313;49.894;8.084;2023-03-14T11:28:18;1.27;;;1.10;;
16407;SDS011;8313;49.894;8.084;2023-03-14T11:41:09;0.40;;;0.40;;
16407;SDS011;8313;49.894;8.084;2023-03-14T11:43:39;1.30;;;1.20;;
16407;SDS011;8313;49.894;8.084;2023-03-14T11:46:21;3.10;;;2.90;;
16407;SDS011;8313;49.894;8.084;2023-03-14T11:51:20;1.03;;;1.03;;
16407;SDS011;8313;49.894;8.084;2023-03-14T11:54:04;0.70;;;0.60;;
16407;SDS011;8313;49.894;8.084;2023-03-14T11:56:45;0.40;;;0.30;;
16407;SDS011;8313;49.894;8.084;2023-03-14T12:10:55;0.40;;;0.30;;
16407;SDS011;8313;49.894;8.084;2023-03-14T12:13:29;0.40;;;0.30;;
16407;SDS011;8313;49.894;8.084;2023-03-14T12:16:04;0.40;;;0.30;;
16407;SDS011;8313;49.894;8.084;2023-03-14T12:18:33;0.40;;;0.30;;
16407;SDS011;8313;49.894;8.084;2023-03-14T12:21:03;0.50;;;0.40;;
16407;SDS011;8313;49.894;8.084;2023-03-14T12:28:36;0.50;;;0.40;;
16407;SDS011;8313;49.894;8.084;2023-03-14T12:34:53;0.40;;;0.40;;
16407;SDS011;8313;49.894;8.084;2023-03-14T12:50:44;4.50;;;3.37;;
16407;SDS011;8313;49.894;8.084;2023-03-14T12:53:27;11.97;;;6.60;;
16407;SDS011;8313;49.894;8.084;2023-03-14T12:56:22;2.70;;;1.87;;
16407;SDS011;8313;49.894;8.084;2023-03-14T12:58:56;1.37;;;1.27;;
16407;SDS011;8313;49.894;8.084;2023-03-14T13:01:29;3.27;;;2.57;;
16407;SDS011;8313;49.894;8.084;2023-03-14T13:03:55;3.07;;;2.20;;
16407;SDS011;8313;49.894;8.084;2023-03-14T13:06:44;2.53;;;2.33;;
16407;SDS011;8313;49.894;8.084;2023-03-14T13:11:56;9.20;;;5.30;;
16407;SDS011;8313;49.894;8.084;2023-03-14T13:14:27;5.03;;;4.40;;
16407;SDS011;8313;49.894;8.084;2023-03-14T13:16:54;2.40;;;2.17;;
16407;SDS011;8313;49.894;8.084;2023-03-14T13:19:21;0.97;;;0.97;;
16407;SDS011;8313;49.894;8.084;2023-03-14T13:21:50;3.20;;;1.37;;
16407;SDS011;8313;49.894;8.084;2023-03-14T13:24:22;0.70;;;0.70;;
16407;SDS011;8313;49.894;8.084;2023-03-14T13:26:51;0.70;;;0.70;;
16407;SDS011;8313;49.894;8.084;2023-03-14T13:29:20;1.03;;;0.93;;
16407;SDS011;8313;49.894;8.084;2023-03-14T13:31:49;0.77;;;0.77;;
16407;SDS011;8313;49.894;8.084;2023-03-14T13:34:19;1.00;;;0.80;;
16407;SDS011;8313;49.894;8.084;2023-03-14T13:36:45;2.10;;;1.73;;
16407;SDS011;8313;49.894;8.084;2023-03-14T13:39:18;1.87;;;1.40;;
16407;SDS011;8313;49.894;8.084;2023-03-14T13:41:47;1.70;;;0.97;;
16407;SDS011;8313;49.894;8.084;2023-03-14T13:44:15;1.10;;;1.00;;
16407;SDS011;8313;49.894;8.084;2023-03-14T13:46:46;1.77;;;1.20;;
16407;SDS011;8313;49.894;8.084;2023-03-14T13:49:22;0.93;;;0.93;;
16407;SDS011;8313;49.894;8.084;2023-03-14T13:51:50;1.10;;;0.90;;
16407;SDS011;8313;49.894;8.084;2023-03-14T13:54:19;0.70;;;0.70;;
16407;SDS011;8313;49.894;8.084;2023-03-14T13:56:47;1.80;;;0.90;;
16407;SDS011;8313;49.894;8.084;2023-03-14T13:59:32;1.63;;;0.87;;
16407;SDS011;8313;49.894;8.084;2023-03-14T14:02:24;0.77;;;0.77;;
16407;SDS011;8313;49.894;8.084;2023-03-14T14:04:49;2.10;;;1.00;;
16407;SDS011;8313;49.894;8.084;2023-03-14T14:07:16;0.93;;;0.70;;
16407;SDS011;8313;49.894;8.084;2023-03-14T14:09:44;0.70;;;0.70;;
16407;SDS011;8313;49.894;8.084;2023-03-14T14:12:14;0.90;;;0.90;;
16407;SDS011;8313;49.894;8.084;2023-03-14T14:14:57;1.30;;;1.20;;
16407;SDS011;8313;49.894;8.084;2023-03-14T14:17:25;4.07;;;3.40;;
16407;SDS011;8313;49.894;8.084;2023-03-14T14:19:55;11.23;;;7.90;;
16407;SDS011;8313;49.894;8.084;2023-03-14T14:22:21;3.87;;;3.07;;
16407;SDS011;8313;49.894;8.084;2023-03-14T14:24:47;4.97;;;3.03;;
16407;SDS011;8313;49.894;8.084;2023-03-14T14:27:18;6.93;;;5.20;;
16407;SDS011;8313;49.894;8.084;2023-03-14T14:29:57;6.00;;;4.07;;
16407;SDS011;8313;49.894;8.084;2023-03-14T14:32:24;3.20;;;2.90;;
16407;SDS011;8313;49.894;8.084;2023-03-14T14:34:57;2.10;;;1.57;;
16407;SDS011;8313;49.894;8.084;2023-03-14T14:37:24;4.27;;;2.20;;
16407;SDS011;8313;49.894;8.084;2023-03-14T14:39:56;1.00;;;1.00;;
16407;SDS011;8313;49.894;8.084;2023-03-14T14:42:25;1.27;;;1.20;;
16407;SDS011;8313;49.894;8.084;2023-03-14T14:44:52;1.30;;;1.10;;
16407;SDS011;8313;49.894;8.084;2023-03-14T14:47:20;1.30;;;1.20;;
16407;SDS011;8313;49.894;8.084;2023-03-14T14:49:48;2.00;;;1.23;;
16407;SDS011;8313;49.894;8.084;2023-03-14T14:57:20;1.67;;;1.17;;
16407;SDS011;8313;49.894;8.084;2023-03-14T14:59:50;2.43;;;1.17;;
16407;SDS011;8313;49.894;8.084;2023-03-14T15:02:30;1.13;;;1.00;;
16407;SDS011;8313;49.894;8.084;2023-03-14T15:05:01;1.10;;;1.00;;
16407;SDS011;8313;49.894;8.084;2023-03-14T15:07:27;1.80;;;0.87;;
16407;SDS011;8313;49.894;8.084;2023-03-14T15:09:52;1.80;;;1.17;;
16407;SDS011;8313;49.894;8.084;2023-03-14T15:12:18;1.73;;;1.60;;
16407;SDS011;8313;49.894;8.084;2023-03-14T15:14:45;1.73;;;1.60;;
16407;SDS011;8313;49.894;8.084;2023-03-14T15:17:11;0.73;;;0.70;;
16407;SDS011;8313;49.894;8.084;2023-03-14T15:19:37;2.20;;;1.17;;
16407;SDS011;8313;49.894;8.084;2023-03-14T15:22:04;0.53;;;0.53;;
16407;SDS011;8313;49.894;8.084;2023-03-14T15:24:41;0.70;;;0.70;;
16407;SDS011;8313;49.894;8.084;2023-03-14T15:27:13;1.73;;;0.70;;
16407;SDS011;8313;49.894;8.084;2023-03-14T15:29:44;0.70;;;0.70;;
16407;SDS011;8313;49.894;8.084;2023-03-14T15:32:13;1.00;;;0.90;;
16407;SDS011;8313;49.894;8.084;2023-03-14T15:34:41;0.87;;;0.87;;
16407;SDS011;8313;49.894;8.084;2023-03-14T15:37:11;1.37;;;1.13;;
16407;SDS011;8313;49.894;8.084;2023-03-14T15:39:41;0.70;;;0.70;;
16407;SDS011;8313;49.894;8.084;2023-03-14T15:42:07;0.93;;;0.80;;
16407;SDS011;8313;49.894;8.084;2023-03-14T15:44:33;2.40;;;1.30;;
16407;SDS011;8313;49.894;8.084;2023-03-14T15:46:59;1.13;;;1.03;;
16407;SDS011;8313;49.894;8.084;2023-03-14T15:49:25;1.67;;;0.90;;
16407;SDS011;8313;49.894;8.084;2023-03-14T15:51:51;1.93;;;0.90;;
16407;SDS011;8313;49.894;8.084;2023-03-14T15:54:16;0.53;;;0.53;;
16407;SDS011;8313;49.894;8.084;2023-03-14T15:56:42;1.20;;;1.10;;
16407;SDS011;8313;49.894;8.084;2023-03-14T15:59:08;0.90;;;0.90;;
16407;SDS011;8313;49.894;8.084;2023-03-14T16:01:33;0.80;;;0.80;;
16407;SDS011;8313;49.894;8.084;2023-03-14T16:03:59;1.10;;;0.97;;
16407;SDS011;8313;49.894;8.084;2023-03-14T16:06:27;0.80;;;0.70;;
16407;SDS011;8313;49.894;8.084;2023-03-14T16:08:53;2.17;;;0.70;;
16407;SDS011;8313;49.894;8.084;2023-03-14T16:11:18;0.73;;;0.73;;
16407;SDS011;8313;49.894;8.084;2023-03-14T16:13:45;1.20;;;1.10;;
16407;SDS011;8313;49.894;8.084;2023-03-14T16:16:11;1.73;;;1.00;;
16407;SDS011;8313;49.894;8.084;2023-03-14T16:18:37;2.20;;;0.80;;
16407;SDS011;8313;49.894;8.084;2023-03-14T16:21:05;1.30;;;1.20;;
16407;SDS011;8313;49.894;8.084;2023-03-14T16:23:32;1.07;;;0.83;;
16407;SDS011;8313;49.894;8.084;2023-03-14T16:26:02;0.70;;;0.70;;
16407;SDS011;8313;49.894;8.084;2023-03-14T16:28:33;1.47;;;1.27;;
16407;SDS011;8313;49.894;8.084;2023-03-14T16:30:59;0.80;;;0.80;;
16407;SDS011;8313;49.894;8.084;2023-03-14T16:33:32;0.80;;;0.80;;
16407;SDS011;8313;49.894;8.084;2023-03-14T16:35:59;2.83;;;1.17;;
16407;SDS011;8313;49.894;8.084;2023-03-14T16:38:30;2.40;;;1.30;;
16407;SDS011;8313;49.894;8.084;2023-03-14T16:43:23;1.17;;;1.00;;